sensor_id;sensor_type;location;lat;lon;timestamp;pressure;altitude;pressure_sealevel;temperature;humidity
56604;BME280;42486;47.478;19.036;2022-10-31T00:02:22;100942.19;;;11.50;100.00
56604;BME280;42486;47.478;19.036;2022-10-31T00:05:33;100940.19;;;11.40;100.00
56604;BME280;42486;47.478;19.036;2022-10-31T00:08:52;100947.31;;;11.51;100.00
56604;BME280;42486;47.478;19.036;2022-10-31T00:11:55;100939.69;;;11.48;100.00
56604;BME280;42486;47.478;19.036;2022-10-31T00:15:09;100939.66;;;11.35;100.00
56604;BME280;42486;47.478;19.036;2022-10-31T00:18:23;100929.84;;;11.39;100.00
56604;BME280;42486;47.478;19.036;2022-10-31T00:21:42;100931.09;;;11.46;100.00
56604;BME280;42486;47.478;19.036;2022-10-31T00:24:49;100937.06;;;11.48;100.00
56604;BME280;42486;47.478;19.036;2022-10-31T00:28:05;100935.16;;;11.37;100.00
56604;BME280;42486;47.478;19.036;2022-10-31T00:31:10;100931.63;;;11.38;100.00
56604;BME280;42486;47.478;19.036;2022-10-31T00:34:21;100926.28;;;11.40;100.00
56604;BME280;42486;47.478;19.036;2022-10-31T00:37:33;100924.50;;;11.40;100.00
56604;BME280;42486;47.478;19.036;2022-10-31T00:40:40;100928.06;;;11.39;100.00
56604;BME280;42486;47.478;19.036;2022-10-31T00:43:47;100924.16;;;11.19;100.00
56604;BME280;42486;47.478;19.036;2022-10-31T00:47:09;100923.84;;;11.11;100.00
56604;BME280;42486;47.478;19.036;2022-10-31T00:50:19;100917.47;;;11.15;100.00
56604;BME280;42486;47.478;19.036;2022-10-31T00:53:44;100924.56;;;11.13;100.00
56604;BME280;42486;47.478;19.036;2022-10-31T00:56:54;100920.38;;;11.11;100.00
56604;BME280;42486;47.478;19.036;2022-10-31T01:00:07;100917.16;;;11.07;100.00
56604;BME280;42486;47.478;19.036;2022-10-31T01:06:44;100916.91;;;10.97;100.00
56604;BME280;42486;47.478;19.036;2022-10-31T01:09:50;100913.38;;;10.98;100.00
56604;BME280;42486;47.478;19.036;2022-10-31T01:13:02;100919.09;;;10.91;100.00
56604;BME280;42486;47.478;19.036;2022-10-31T01:16:07;100911.97;;;10.93;100.00
56604;BME280;42486;47.478;19.036;2022-10-31T01:19:12;100914.00;;;11.02;100.00
56604;BME280;42486;47.478;19.036;2022-10-31T01:22:26;100913.59;;;11.08;100.00
56604;BME280;42486;47.478;19.036;2022-10-31T01:25:29;100910.41;;;10.90;100.00
56604;BME280;42486;47.478;19.036;2022-10-31T01:28:44;100903.81;;;10.85;100.00
56604;BME280;42486;47.478;19.036;2022-10-31T01:31:48;100908.53;;;10.92;100.00
56604;BME280;42486;47.478;19.036;2022-10-31T01:34:54;100906.38;;;10.99;100.00
56604;BME280;42486;47.478;19.036;2022-10-31T01:37:57;100901.97;;;10.99;100.00
56604;BME280;42486;47.478;19.036;2022-10-31T01:40:59;100903.31;;;10.92;100.00
56604;BME280;42486;47.478;19.036;2022-10-31T01:47:27;100905.09;;;10.92;100.00
56604;BME280;42486;47.478;19.036;2022-10-31T01:50:49;100902.38;;;10.93;100.00
56604;BME280;42486;47.478;19.036;2022-10-31T01:54:06;100900.47;;;10.83;100.00
56604;BME280;42486;47.478;19.036;2022-10-31T01:57:14;100900.78;;;10.78;100.00
56604;BME280;42486;47.478;19.036;2022-10-31T02:00:20;100907.03;;;10.75;100.00
56604;BME280;42486;47.478;19.036;2022-10-31T02:03:24;100894.19;;;10.72;100.00
56604;BME280;42486;47.478;19.036;2022-10-31T02:10:00;100898.56;;;10.72;100.00
56604;BME280;42486;47.478;19.036;2022-10-31T02:13:07;100897.28;;;10.65;100.00
56604;BME280;42486;47.478;19.036;2022-10-31T02:16:10;100895.41;;;10.67;100.00
56604;BME280;42486;47.478;19.036;2022-10-31T02:19:14;100890.28;;;10.65;100.00
56604;BME280;42486;47.478;19.036;2022-10-31T02:42:35;100892.28;;;10.62;100.00
56604;BME280;42486;47.478;19.036;2022-10-31T02:49:06;100898.22;;;10.64;100.00
56604;BME280;42486;47.478;19.036;2022-10-31T02:52:31;100903.09;;;10.55;100.00
56604;BME280;42486;47.478;19.036;2022-10-31T02:55:53;100900.94;;;10.62;100.00
56604;BME280;42486;47.478;19.036;2022-10-31T02:59:04;100903.84;;;10.57;100.00
56604;BME280;42486;47.478;19.036;2022-10-31T03:02:53;100904.50;;;10.61;100.00
56604;BME280;42486;47.478;19.036;2022-10-31T03:09:25;100905.13;;;10.65;100.00
56604;BME280;42486;47.478;19.036;2022-10-31T03:12:40;100902.19;;;10.56;100.00
56604;BME280;42486;47.478;19.036;2022-10-31T03:15:56;100903.97;;;10.56;100.00
56604;BME280;42486;47.478;19.036;2022-10-31T03:19:06;100908.03;;;10.60;100.00
56604;BME280;42486;47.478;19.036;2022-10-31T03:22:20;100914.75;;;10.64;100.00
56604;BME280;42486;47.478;19.036;2022-10-31T03:25:30;100910.75;;;10.58;100.00
56604;BME280;42486;47.478;19.036;2022-10-31T03:28:59;100919.63;;;10.56;100.00
56604;BME280;42486;47.478;19.036;2022-10-31T03:32:13;100917.09;;;10.54;100.00
56604;BME280;42486;47.478;19.036;2022-10-31T03:35:23;100914.56;;;10.53;100.00
56604;BME280;42486;47.478;19.036;2022-10-31T03:38:31;100922.41;;;10.53;100.00
56604;BME280;42486;47.478;19.036;2022-10-31T03:42:00;100925.16;;;10.51;100.00
56604;BME280;42486;47.478;19.036;2022-10-31T03:48:42;100916.84;;;10.45;100.00
56604;BME280;42486;47.478;19.036;2022-10-31T03:51:59;100925.22;;;10.50;100.00
56604;BME280;42486;47.478;19.036;2022-10-31T03:55:08;100922.72;;;10.48;100.00
56604;BME280;42486;47.478;19.036;2022-10-31T03:58:21;100922.34;;;10.54;100.00
56604;BME280;42486;47.478;19.036;2022-10-31T04:01:39;100920.47;;;10.56;100.00
56604;BME280;42486;47.478;19.036;2022-10-31T04:04:56;100922.25;;;10.56;100.00
56604;BME280;42486;47.478;19.036;2022-10-31T04:08:08;100926.59;;;10.55;100.00
56604;BME280;42486;47.478;19.036;2022-10-31T04:11:30;100925.88;;;10.53;100.00
56604;BME280;42486;47.478;19.036;2022-10-31T04:14:46;100924.66;;;10.59;100.00
56604;BME280;42486;47.478;19.036;2022-10-31T04:17:49;100923.81;;;10.58;100.00
56604;BME280;42486;47.478;19.036;2022-10-31T04:20:59;100932.28;;;10.62;100.00
56604;BME280;42486;47.478;19.036;2022-10-31T04:24:03;100928.94;;;10.60;100.00
56604;BME280;42486;47.478;19.036;2022-10-31T04:27:06;100933.03;;;10.64;100.00
56604;BME280;42486;47.478;19.036;2022-10-31T04:30:18;100929.38;;;10.67;100.00
56604;BME280;42486;47.478;19.036;2022-10-31T04:33:26;100936.00;;;10.72;100.00
56604;BME280;42486;47.478;19.036;2022-10-31T04:36:30;100941.50;;;10.68;100.00
56604;BME280;42486;47.478;19.036;2022-10-31T04:39:44;100946.09;;;10.64;100.00
56604;BME280;42486;47.478;19.036;2022-10-31T04:43:02;100945.06;;;10.67;100.00
56604;BME280;42486;47.478;19.036;2022-10-31T04:46:12;100940.00;;;10.64;100.00
56604;BME280;42486;47.478;19.036;2022-10-31T04:49:15;100949.09;;;10.58;100.00
56604;BME280;42486;47.478;19.036;2022-10-31T04:52:27;100943.16;;;10.69;100.00
56604;BME280;42486;47.478;19.036;2022-10-31T04:55:42;100951.13;;;10.67;100.00
56604;BME280;42486;47.478;19.036;2022-10-31T04:58:47;100944.81;;;10.57;100.00
56604;BME280;42486;47.478;19.036;2022-10-31T05:01:56;100943.78;;;10.60;100.00
56604;BME280;42486;47.478;19.036;2022-10-31T05:05:00;100942.94;;;10.59;100.00
56604;BME280;42486;47.478;19.036;2022-10-31T05:08:13;100943.22;;;10.54;100.00
56604;BME280;42486;47.478;19.036;2022-10-31T05:11:17;100942.75;;;10.62;100.00
56604;BME280;42486;47.478;19.036;2022-10-31T05:14:39;100946.59;;;10.56;100.00
56604;BME280;42486;47.478;19.036;2022-10-31T05:17:57;100944.91;;;10.55;100.00
56604;BME280;42486;47.478;19.036;2022-10-31T05:21:13;100954.78;;;10.65;100.00
56604;BME280;42486;47.478;19.036;2022-10-31T05:24:23;100951.00;;;10.69;100.00
56604;BME280;42486;47.478;19.036;2022-10-31T05:27:37;100951.41;;;10.63;100.00
56604;BME280;42486;47.478;19.036;2022-10-31T05:31:00;100952.94;;;10.52;100.00
56604;BME280;42486;47.478;19.036;2022-10-31T05:34:05;100938.50;;;10.47;100.00
56604;BME280;42486;47.478;19.036;2022-10-31T05:37:07;100952.84;;;10.54;100.00
56604;BME280;42486;47.478;19.036;2022-10-31T05:40:14;100951.16;;;10.53;100.00
56604;BME280;42486;47.478;19.036;2022-10-31T05:43:17;100962.19;;;10.44;100.00
56604;BME280;42486;47.478;19.036;2022-10-31T05:46:19;100960.88;;;10.51;100.00
56604;BME280;42486;47.478;19.036;2022-10-31T05:49:25;100970.25;;;10.41;100.00
56604;BME280;42486;47.478;19.036;2022-10-31T05:52:36;100979.37;;;10.48;100.00
56604;BME280;42486;47.478;19.036;2022-10-31T05:55:58;100969.75;;;10.48;100.00
56604;BME280;42486;47.478;19.036;2022-10-31T05:59:09;100973.03;;;10.38;100.00
56604;BME280;42486;47.478;19.036;2022-10-31T06:02:16;100969.97;;;10.45;100.00
56604;BME280;42486;47.478;19.036;2022-10-31T06:09:09;100958.28;;;10.78;100.00
56604;BME280;42486;47.478;19.036;2022-10-31T06:12:12;100961.31;;;10.85;100.00
56604;BME280;42486;47.478;19.036;2022-10-31T06:15:31;100973.63;;;10.70;100.00
56604;BME280;42486;47.478;19.036;2022-10-31T06:18:33;100966.34;;;10.61;100.00
56604;BME280;42486;47.478;19.036;2022-10-31T06:21:36;100977.06;;;10.70;100.00
56604;BME280;42486;47.478;19.036;2022-10-31T06:24:42;100961.94;;;10.75;100.00
56604;BME280;42486;47.478;19.036;2022-10-31T06:28:03;100969.81;;;10.88;100.00
56604;BME280;42486;47.478;19.036;2022-10-31T06:31:16;100975.63;;;10.79;100.00
56604;BME280;42486;47.478;19.036;2022-10-31T06:34:30;100955.75;;;10.76;100.00
56604;BME280;42486;47.478;19.036;2022-10-31T06:37:37;100966.75;;;10.82;100.00
56604;BME280;42486;47.478;19.036;2022-10-31T06:40:47;100979.59;;;10.85;100.00
56604;BME280;42486;47.478;19.036;2022-10-31T06:43:49;100980.22;;;10.75;100.00
56604;BME280;42486;47.478;19.036;2022-10-31T06:47:15;100990.88;;;10.72;100.00
56604;BME280;42486;47.478;19.036;2022-10-31T06:50:32;100994.56;;;10.83;100.00
56604;BME280;42486;47.478;19.036;2022-10-31T06:53:35;101000.03;;;10.92;100.00
56604;BME280;42486;47.478;19.036;2022-10-31T06:56:38;101000.91;;;11.06;100.00
56604;BME280;42486;47.478;19.036;2022-10-31T06:59:48;101002.69;;;11.05;100.00
56604;BME280;42486;47.478;19.036;2022-10-31T07:02:54;100999.03;;;11.08;100.00
56604;BME280;42486;47.478;19.036;2022-10-31T07:05:58;101004.72;;;11.14;100.00
56604;BME280;42486;47.478;19.036;2022-10-31T07:09:23;101011.81;;;11.12;100.00
56604;BME280;42486;47.478;19.036;2022-10-31T07:12:27;101009.72;;;11.05;100.00
56604;BME280;42486;47.478;19.036;2022-10-31T07:15:32;101010.53;;;11.05;100.00
56604;BME280;42486;47.478;19.036;2022-10-31T07:18:54;101011.56;;;11.02;100.00
56604;BME280;42486;47.478;19.036;2022-10-31T07:21:59;101016.22;;;11.12;100.00
56604;BME280;42486;47.478;19.036;2022-10-31T07:28:22;101008.22;;;11.28;100.00
56604;BME280;42486;47.478;19.036;2022-10-31T07:31:26;101009.28;;;11.11;100.00
56604;BME280;42486;47.478;19.036;2022-10-31T07:34:34;101009.34;;;11.23;100.00
56604;BME280;42486;47.478;19.036;2022-10-31T07:37:50;101013.00;;;11.21;100.00
56604;BME280;42486;47.478;19.036;2022-10-31T07:40:54;101006.81;;;11.22;100.00
56604;BME280;42486;47.478;19.036;2022-10-31T07:44:00;101017.19;;;11.23;100.00
56604;BME280;42486;47.478;19.036;2022-10-31T07:47:42;101014.44;;;11.12;100.00
56604;BME280;42486;47.478;19.036;2022-10-31T07:50:44;101019.00;;;11.09;100.00
56604;BME280;42486;47.478;19.036;2022-10-31T07:57:20;101021.00;;;11.05;100.00
56604;BME280;42486;47.478;19.036;2022-10-31T08:04:13;101015.50;;;10.95;100.00
56604;BME280;42486;47.478;19.036;2022-10-31T08:07:36;101020.72;;;11.10;100.00
56604;BME280;42486;47.478;19.036;2022-10-31T08:10:39;101021.59;;;11.23;100.00
56604;BME280;42486;47.478;19.036;2022-10-31T08:13:42;101022.50;;;11.22;100.00
56604;BME280;42486;47.478;19.036;2022-10-31T08:16:44;101023.75;;;11.16;100.00
56604;BME280;42486;47.478;19.036;2022-10-31T08:19:51;101028.97;;;11.16;100.00
56604;BME280;42486;47.478;19.036;2022-10-31T08:23:02;101029.47;;;11.09;100.00
56604;BME280;42486;47.478;19.036;2022-10-31T08:26:10;101036.50;;;11.08;100.00
56604;BME280;42486;47.478;19.036;2022-10-31T08:29:18;101031.25;;;11.08;100.00
56604;BME280;42486;47.478;19.036;2022-10-31T08:32:22;101026.16;;;11.19;100.00
56604;BME280;42486;47.478;19.036;2022-10-31T08:35:34;101032.47;;;11.30;100.00
56604;BME280;42486;47.478;19.036;2022-10-31T08:38:40;101027.56;;;11.38;100.00
56604;BME280;42486;47.478;19.036;2022-10-31T08:41:44;101031.13;;;11.37;100.00
56604;BME280;42486;47.478;19.036;2022-10-31T08:44:53;101022.56;;;11.48;100.00
56604;BME280;42486;47.478;19.036;2022-10-31T08:47:59;101031.16;;;11.50;100.00
56604;BME280;42486;47.478;19.036;2022-10-31T08:51:13;101032.09;;;11.49;100.00
56604;BME280;42486;47.478;19.036;2022-10-31T08:54:19;101027.31;;;11.55;100.00
56604;BME280;42486;47.478;19.036;2022-10-31T08:57:24;101029.50;;;11.61;100.00
56604;BME280;42486;47.478;19.036;2022-10-31T09:00:37;101032.03;;;11.63;100.00
56604;BME280;42486;47.478;19.036;2022-10-31T09:03:39;101040.59;;;11.78;100.00
56604;BME280;42486;47.478;19.036;2022-10-31T09:06:44;101044.81;;;11.67;100.00
56604;BME280;42486;47.478;19.036;2022-10-31T09:10:09;101036.41;;;11.50;100.00
56604;BME280;42486;47.478;19.036;2022-10-31T09:13:14;101035.75;;;11.33;100.00
56604;BME280;42486;47.478;19.036;2022-10-31T09:16:33;101039.31;;;11.45;100.00
56604;BME280;42486;47.478;19.036;2022-10-31T09:19:38;101039.12;;;11.61;100.00
56604;BME280;42486;47.478;19.036;2022-10-31T09:22:42;101047.44;;;11.67;100.00
56604;BME280;42486;47.478;19.036;2022-10-31T09:25:49;101040.41;;;11.68;100.00
56604;BME280;42486;47.478;19.036;2022-10-31T09:29:03;101049.63;;;11.74;100.00
56604;BME280;42486;47.478;19.036;2022-10-31T09:32:06;101041.13;;;11.70;100.00
56604;BME280;42486;47.478;19.036;2022-10-31T09:35:12;101042.41;;;11.77;100.00
56604;BME280;42486;47.478;19.036;2022-10-31T09:38:28;101043.28;;;11.90;100.00
56604;BME280;42486;47.478;19.036;2022-10-31T09:51:40;101054.03;;;11.86;100.00
56604;BME280;42486;47.478;19.036;2022-10-31T09:58:29;101047.75;;;11.88;100.00
56604;BME280;42486;47.478;19.036;2022-10-31T10:05:10;101053.44;;;11.95;100.00
56604;BME280;42486;47.478;19.036;2022-10-31T10:08:28;101047.59;;;11.92;100.00
56604;BME280;42486;47.478;19.036;2022-10-31T10:11:46;101051.81;;;11.67;100.00
56604;BME280;42486;47.478;19.036;2022-10-31T10:18:21;101035.25;;;11.54;100.00
56604;BME280;42486;47.478;19.036;2022-10-31T10:31:41;101034.81;;;12.00;100.00
56604;BME280;42486;47.478;19.036;2022-10-31T10:38:17;101031.00;;;11.91;100.00
56604;BME280;42486;47.478;19.036;2022-10-31T10:41:29;101027.69;;;11.89;100.00
56604;BME280;42486;47.478;19.036;2022-10-31T10:44:54;101027.13;;;11.84;100.00
56604;BME280;42486;47.478;19.036;2022-10-31T10:48:36;101021.28;;;12.06;100.00
56604;BME280;42486;47.478;19.036;2022-10-31T10:52:07;101024.38;;;11.85;100.00
56604;BME280;42486;47.478;19.036;2022-10-31T10:55:52;101029.13;;;12.06;100.00
56604;BME280;42486;47.478;19.036;2022-10-31T10:59:13;101021.28;;;11.93;100.00
56604;BME280;42486;47.478;19.036;2022-10-31T11:02:19;101025.78;;;11.91;100.00
56604;BME280;42486;47.478;19.036;2022-10-31T11:05:26;101030.69;;;11.96;100.00
56604;BME280;42486;47.478;19.036;2022-10-31T11:08:44;101019.69;;;11.90;100.00
56604;BME280;42486;47.478;19.036;2022-10-31T11:11:48;101024.09;;;12.03;100.00
56604;BME280;42486;47.478;19.036;2022-10-31T11:15:07;101017.59;;;12.21;100.00
56604;BME280;42486;47.478;19.036;2022-10-31T11:18:19;101023.87;;;12.31;100.00
56604;BME280;42486;47.478;19.036;2022-10-31T11:21:29;101018.50;;;12.33;100.00
56604;BME280;42486;47.478;19.036;2022-10-31T11:24:40;101017.78;;;12.31;100.00
56604;BME280;42486;47.478;19.036;2022-10-31T11:28:05;101014.75;;;12.37;100.00
56604;BME280;42486;47.478;19.036;2022-10-31T11:31:18;101012.22;;;12.36;100.00
56604;BME280;42486;47.478;19.036;2022-10-31T11:37:41;101009.53;;;12.11;100.00
56604;BME280;42486;47.478;19.036;2022-10-31T11:40:51;101008.03;;;12.20;100.00
56604;BME280;42486;47.478;19.036;2022-10-31T11:43:57;101006.28;;;12.21;100.00
56604;BME280;42486;47.478;19.036;2022-10-31T11:47:17;100999.34;;;12.20;100.00
56604;BME280;42486;47.478;19.036;2022-10-31T11:50:35;101002.34;;;12.39;100.00
56604;BME280;42486;47.478;19.036;2022-10-31T11:53:47;101000.47;;;12.41;100.00
56604;BME280;42486;47.478;19.036;2022-10-31T11:57:08;101001.19;;;12.43;100.00
56604;BME280;42486;47.478;19.036;2022-10-31T12:00:36;101004.25;;;12.37;100.00
56604;BME280;42486;47.478;19.036;2022-10-31T12:03:48;101006.44;;;12.43;100.00
56604;BME280;42486;47.478;19.036;2022-10-31T12:07:01;101002.03;;;12.44;100.00
56604;BME280;42486;47.478;19.036;2022-10-31T12:10:13;101004.88;;;12.28;100.00
56604;BME280;42486;47.478;19.036;2022-10-31T12:32:33;101002.84;;;12.07;100.00
56604;BME280;42486;47.478;19.036;2022-10-31T12:36:27;100996.34;;;12.13;100.00
56604;BME280;42486;47.478;19.036;2022-10-31T12:44:23;100997.41;;;12.10;100.00
56604;BME280;42486;47.478;19.036;2022-10-31T12:57:56;100987.13;;;12.07;100.00
56604;BME280;42486;47.478;19.036;2022-10-31T13:01:08;100995.53;;;12.00;100.00
56604;BME280;42486;47.478;19.036;2022-10-31T13:04:37;100995.91;;;11.94;100.00
56604;BME280;42486;47.478;19.036;2022-10-31T13:11:08;100986.50;;;12.04;100.00
56604;BME280;42486;47.478;19.036;2022-10-31T13:14:33;100983.44;;;12.10;100.00
56604;BME280;42486;47.478;19.036;2022-10-31T13:18:04;100982.19;;;12.16;100.00
56604;BME280;42486;47.478;19.036;2022-10-31T13:25:15;100985.44;;;11.81;100.00
56604;BME280;42486;47.478;19.036;2022-10-31T13:31:29;100985.22;;;11.97;100.00
56604;BME280;42486;47.478;19.036;2022-10-31T13:37:58;100989.03;;;11.93;100.00
56604;BME280;42486;47.478;19.036;2022-10-31T13:44:24;100985.44;;;11.94;100.00
56604;BME280;42486;47.478;19.036;2022-10-31T13:47:28;100984.94;;;11.88;100.00
56604;BME280;42486;47.478;19.036;2022-10-31T13:50:39;100984.06;;;11.75;100.00
56604;BME280;42486;47.478;19.036;2022-10-31T13:53:45;100989.19;;;11.64;100.00
56604;BME280;42486;47.478;19.036;2022-10-31T13:57:22;100982.81;;;11.68;100.00
56604;BME280;42486;47.478;19.036;2022-10-31T14:00:35;100979.25;;;11.82;100.00
56604;BME280;42486;47.478;19.036;2022-10-31T14:03:39;100980.91;;;11.83;100.00
56604;BME280;42486;47.478;19.036;2022-10-31T14:07:11;100981.12;;;11.80;100.00
56604;BME280;42486;47.478;19.036;2022-10-31T14:13:41;100977.38;;;11.71;100.00
56604;BME280;42486;47.478;19.036;2022-10-31T14:16:44;100977.38;;;11.71;100.00
56604;BME280;42486;47.478;19.036;2022-10-31T14:19:58;100976.31;;;11.61;100.00
56604;BME280;42486;47.478;19.036;2022-10-31T14:26:35;100975.47;;;11.48;100.00
56604;BME280;42486;47.478;19.036;2022-10-31T14:29:44;100965.09;;;11.33;100.00
56604;BME280;42486;47.478;19.036;2022-10-31T14:32:57;100971.06;;;11.35;100.00
56604;BME280;42486;47.478;19.036;2022-10-31T14:36:08;100966.03;;;11.32;100.00
56604;BME280;42486;47.478;19.036;2022-10-31T14:39:49;100975.06;;;11.41;100.00
56604;BME280;42486;47.478;19.036;2022-10-31T14:52:59;100972.94;;;11.46;100.00
56604;BME280;42486;47.478;19.036;2022-10-31T14:56:37;100977.06;;;11.50;100.00
56604;BME280;42486;47.478;19.036;2022-10-31T14:59:44;100974.72;;;11.45;100.00
56604;BME280;42486;47.478;19.036;2022-10-31T15:02:57;100971.06;;;11.48;100.00
56604;BME280;42486;47.478;19.036;2022-10-31T15:06:20;100974.53;;;11.49;100.00
56604;BME280;42486;47.478;19.036;2022-10-31T15:09:42;100973.06;;;11.44;100.00
56604;BME280;42486;47.478;19.036;2022-10-31T15:12:48;100968.34;;;11.37;100.00
56604;BME280;42486;47.478;19.036;2022-10-31T15:15:51;100971.59;;;11.28;100.00
56604;BME280;42486;47.478;19.036;2022-10-31T15:18:59;100969.19;;;11.37;100.00
56604;BME280;42486;47.478;19.036;2022-10-31T15:22:03;100974.72;;;11.45;100.00
56604;BME280;42486;47.478;19.036;2022-10-31T15:25:18;100966.59;;;11.50;100.00
56604;BME280;42486;47.478;19.036;2022-10-31T15:28:22;100971.38;;;11.43;100.00
56604;BME280;42486;47.478;19.036;2022-10-31T15:31:25;100972.63;;;11.38;100.00
56604;BME280;42486;47.478;19.036;2022-10-31T15:37:40;100968.13;;;11.40;100.00
56604;BME280;42486;47.478;19.036;2022-10-31T15:40:54;100969.47;;;11.33;100.00
56604;BME280;42486;47.478;19.036;2022-10-31T15:44:11;100973.13;;;11.30;100.00
56604;BME280;42486;47.478;19.036;2022-10-31T15:47:17;100971.06;;;11.35;100.00
56604;BME280;42486;47.478;19.036;2022-10-31T15:50:28;100972.53;;;11.39;100.00
56604;BME280;42486;47.478;19.036;2022-10-31T15:53:37;100984.34;;;11.32;100.00
56604;BME280;42486;47.478;19.036;2022-10-31T15:56:52;100981.94;;;11.29;100.00
56604;BME280;42486;47.478;19.036;2022-10-31T15:59:54;100992.09;;;11.34;100.00
56604;BME280;42486;47.478;19.036;2022-10-31T16:03:05;100990.00;;;11.26;100.00
56604;BME280;42486;47.478;19.036;2022-10-31T16:06:19;100991.78;;;11.26;100.00
56604;BME280;42486;47.478;19.036;2022-10-31T16:09:33;100990.53;;;11.31;100.00
56604;BME280;42486;47.478;19.036;2022-10-31T16:12:49;100993.88;;;11.33;100.00
56604;BME280;42486;47.478;19.036;2022-10-31T16:16:03;100994.69;;;11.21;100.00
56604;BME280;42486;47.478;19.036;2022-10-31T16:19:42;100996.56;;;11.19;100.00
56604;BME280;42486;47.478;19.036;2022-10-31T16:23:03;100993.66;;;11.23;100.00
56604;BME280;42486;47.478;19.036;2022-10-31T16:26:15;101007.59;;;11.37;100.00
56604;BME280;42486;47.478;19.036;2022-10-31T16:36:33;101001.59;;;11.22;100.00
56604;BME280;42486;47.478;19.036;2022-10-31T16:39:40;101013.78;;;11.36;100.00
56604;BME280;42486;47.478;19.036;2022-10-31T16:42:52;101014.50;;;11.38;100.00
56604;BME280;42486;47.478;19.036;2022-10-31T16:46:01;101018.88;;;11.37;100.00
56604;BME280;42486;47.478;19.036;2022-10-31T16:49:08;101018.56;;;11.29;100.00
56604;BME280;42486;47.478;19.036;2022-10-31T16:52:23;101018.31;;;11.07;100.00
56604;BME280;42486;47.478;19.036;2022-10-31T16:55:47;101018.31;;;11.07;100.00
56604;BME280;42486;47.478;19.036;2022-10-31T16:58:52;101019.87;;;11.09;100.00
56604;BME280;42486;47.478;19.036;2022-10-31T17:01:55;101027.25;;;11.02;100.00
56604;BME280;42486;47.478;19.036;2022-10-31T17:05:00;101030.91;;;11.00;100.00
56604;BME280;42486;47.478;19.036;2022-10-31T17:08:03;101036.69;;;11.05;100.00
56604;BME280;42486;47.478;19.036;2022-10-31T17:11:17;101038.69;;;11.01;100.00
56604;BME280;42486;47.478;19.036;2022-10-31T17:14:24;101032.63;;;11.01;100.00
56604;BME280;42486;47.478;19.036;2022-10-31T17:17:32;101042.22;;;11.00;100.00
56604;BME280;42486;47.478;19.036;2022-10-31T17:20:45;101036.00;;;10.89;100.00
56604;BME280;42486;47.478;19.036;2022-10-31T17:24:01;101036.94;;;10.88;100.00
56604;BME280;42486;47.478;19.036;2022-10-31T17:27:18;101042.75;;;10.78;100.00
56604;BME280;42486;47.478;19.036;2022-10-31T17:30:22;101045.84;;;10.71;100.00
56604;BME280;42486;47.478;19.036;2022-10-31T17:33:28;101043.03;;;10.74;100.00
56604;BME280;42486;47.478;19.036;2022-10-31T17:36:33;101039.84;;;10.83;100.00
56604;BME280;42486;47.478;19.036;2022-10-31T17:39:42;101033.81;;;10.95;100.00
56604;BME280;42486;47.478;19.036;2022-10-31T17:42:53;101037.66;;;10.90;100.00
56604;BME280;42486;47.478;19.036;2022-10-31T17:46:07;101035.53;;;10.82;100.00
56604;BME280;42486;47.478;19.036;2022-10-31T17:49:17;101029.75;;;10.77;100.00
56604;BME280;42486;47.478;19.036;2022-10-31T17:52:20;101035.00;;;10.77;100.00
56604;BME280;42486;47.478;19.036;2022-10-31T17:55:23;101036.69;;;10.64;100.00
56604;BME280;42486;47.478;19.036;2022-10-31T17:58:26;101034.41;;;10.59;100.00
56604;BME280;42486;47.478;19.036;2022-10-31T18:01:29;101038.88;;;10.57;100.00
56604;BME280;42486;47.478;19.036;2022-10-31T18:04:32;101035.22;;;10.60;100.00
56604;BME280;42486;47.478;19.036;2022-10-31T18:07:35;101034.63;;;10.69;100.00
56604;BME280;42486;47.478;19.036;2022-10-31T18:10:39;101030.34;;;10.68;100.00
56604;BME280;42486;47.478;19.036;2022-10-31T18:13:42;101030.44;;;10.66;100.00
56604;BME280;42486;47.478;19.036;2022-10-31T18:16:45;101038.19;;;10.68;100.00
56604;BME280;42486;47.478;19.036;2022-10-31T18:19:48;101038.28;;;10.66;100.00
56604;BME280;42486;47.478;19.036;2022-10-31T18:22:51;101036.69;;;10.64;100.00
56604;BME280;42486;47.478;19.036;2022-10-31T18:25:53;101035.22;;;10.60;100.00
56604;BME280;42486;47.478;19.036;2022-10-31T18:28:57;101027.59;;;10.56;100.00
56604;BME280;42486;47.478;19.036;2022-10-31T18:31:59;101029.53;;;10.53;100.00
56604;BME280;42486;47.478;19.036;2022-10-31T18:35:09;101032.69;;;10.58;100.00
56604;BME280;42486;47.478;19.036;2022-10-31T18:38:13;101033.66;;;10.57;100.00
56604;BME280;42486;47.478;19.036;2022-10-31T18:41:17;101029.38;;;10.56;100.00
56604;BME280;42486;47.478;19.036;2022-10-31T18:44:20;101037.09;;;10.57;100.00
56604;BME280;42486;47.478;19.036;2022-10-31T18:47:27;101030.75;;;10.62;100.00
56604;BME280;42486;47.478;19.036;2022-10-31T18:50:32;101035.91;;;10.49;100.00
56604;BME280;42486;47.478;19.036;2022-10-31T18:53:37;101030.69;;;10.49;100.00
56604;BME280;42486;47.478;19.036;2022-10-31T18:56:40;101035.91;;;10.49;100.00
56604;BME280;42486;47.478;19.036;2022-10-31T18:59:42;101031.22;;;10.54;100.00
56604;BME280;42486;47.478;19.036;2022-10-31T19:02:46;101034.50;;;10.43;100.00
56604;BME280;42486;47.478;19.036;2022-10-31T19:05:50;101034.13;;;10.49;100.00